Time;durP1;ratioP1;P1;durP2;ratioP2;P2;SDS_P1;SDS_P2;PMS_P1;PMS_P2;Temp;Humidity;BMP_temperature;BMP_pressure;BME280_temperature;BME280_humidity;BME280_pressure;Samples;Min_cycle;Max_cycle;Signal;HPM_P1;HPM_P2
2023/07/25 00:00:41;;;;;;;15.73;12.88;;;;;;;22.09;64.89;92638.41;5049709;28;20232;-77
2023/07/25 00:03:07;;;;;;;19.35;13.88;;;;;;;22.15;65.59;92649.53;5037798;28;20203;-75
2023/07/25 00:05:32;;;;;;;14.77;13.27;;;;;;;22.11;64.50;92641.50;5051092;28;20240;-76
2023/07/25 00:07:57;;;;;;;21.15;13.65;;;;;;;21.95;64.16;92654.06;5050133;28;20192;-76
2023/07/25 00:10:23;;;;;;;17.67;13.02;;;;;;;21.99;63.94;92660.22;5048028;28;20232;-76
2023/07/25 00:12:52;;;;;;;16.35;13.73;;;;;;;21.75;63.79;92620.56;5050396;28;20192;-76
2023/07/25 00:15:18;;;;;;;17.23;12.88;;;;;;;22.03;65.64;92654.97;5049888;28;20224;-76
2023/07/25 00:17:43;;;;;;;20.83;13.40;;;;;;;22.12;65.81;92653.66;5050182;28;20231;-76
2023/07/25 00:20:09;;;;;;;16.58;13.05;;;;;;;22.10;65.29;92647.16;5049057;28;20224;-76
2023/07/25 00:22:35;;;;;;;15.85;13.18;;;;;;;22.06;65.86;92651.63;5048628;28;20165;-76
2023/07/25 00:25:00;;;;;;;16.88;13.23;;;;;;;21.85;65.79;92638.63;5044375;28;20235;-76
2023/07/25 00:27:25;;;;;;;15.48;12.88;;;;;;;21.75;66.98;92639.19;5029976;28;20255;-77
2023/07/25 00:29:51;;;;;;;23.48;12.98;;;;;;;21.80;65.54;92640.81;5032873;28;20254;-76
2023/07/25 00:32:17;;;;;;;16.98;12.43;;;;;;;21.79;66.98;92642.69;5049535;28;20211;-76
2023/07/25 00:34:42;;;;;;;16.73;13.73;;;;;;;21.67;67.46;92634.78;5046187;28;20196;-76
2023/07/25 00:37:08;;;;;;;15.52;13.23;;;;;;;21.63;67.58;92606.59;5029848;28;20197;-76
2023/07/25 00:39:33;;;;;;;16.40;12.75;;;;;;;21.72;66.67;92623.91;5029302;28;20185;-77
2023/07/25 00:41:58;;;;;;;16.33;13.75;;;;;;;21.63;66.85;92622.53;5030142;28;20198;-76
2023/07/25 00:44:24;;;;;;;15.95;13.18;;;;;;;21.33;68.18;92592.22;5029770;28;20189;-76
2023/07/25 00:46:49;;;;;;;17.45;13.90;;;;;;;21.43;68.46;92618.28;5048798;28;20222;-76
2023/07/25 00:49:15;;;;;;;17.55;13.57;;;;;;;21.54;67.64;92621.97;5054346;28;20202;-75
2023/07/25 00:51:40;;;;;;;17.05;14.18;;;;;;;21.45;67.09;92618.69;5048951;28;20290;-76
2023/07/25 00:54:06;;;;;;;15.63;13.02;;;;;;;21.51;67.21;92623.41;5049664;28;20182;-81
2023/07/25 00:56:32;;;;;;;19.15;14.13;;;;;;;21.33;68.16;92606.28;5048995;28;20219;-76
2023/07/25 00:58:57;;;;;;;19.33;12.45;;;;;;;21.31;67.37;92587.25;5049476;28;20834;-76
2023/07/25 01:01:24;;;;;;;16.60;13.85;;;;;;;21.52;66.94;92613.56;5048867;28;20224;-76
2023/07/25 01:03:50;;;;;;;15.93;13.02;;;;;;;21.51;67.34;92615.44;5051669;28;20201;-75
2023/07/25 01:06:17;;;;;;;19.38;13.10;;;;;;;21.39;68.27;92598.81;5052895;28;20226;-76
2023/07/25 01:08:53;;;;;;;16.23;14.23;;;;;;;21.47;68.35;92611.94;5053744;28;20207;-76
2023/07/25 01:11:20;;;;;;;17.48;13.40;;;;;;;21.40;69.41;92601.13;5052908;28;20215;-76
2023/07/25 01:13:45;;;;;;;17.05;13.02;;;;;;;21.24;70.04;92597.75;5052661;28;20189;-77
2023/07/25 01:16:14;;;;;;;19.88;14.32;;;;;;;21.32;69.33;92607.41;5052785;28;20251;-77
2023/07/25 01:18:41;;;;;;;17.50;13.13;;;;;;;21.39;68.70;92602.25;5052067;28;20869;-77
2023/07/25 01:21:07;;;;;;;17.00;13.20;;;;;;;21.38;68.70;92618.53;5052375;28;20225;-76
2023/07/25 01:23:33;;;;;;;19.45;13.48;;;;;;;21.43;68.06;92621.69;5052535;28;20582;-78
2023/07/25 01:25:59;;;;;;;19.00;14.30;;;;;;;21.37;68.82;92622.31;5052570;28;20232;-77
2023/07/25 01:28:25;;;;;;;18.05;14.43;;;;;;;21.38;68.35;92614.00;5052716;28;20174;-76
2023/07/25 01:30:50;;;;;;;22.67;14.45;;;;;;;21.31;68.45;92607.75;5052364;28;20228;-78
2023/07/25 01:33:16;;;;;;;20.63;13.48;;;;;;;21.42;68.68;92614.06;5051921;28;20259;-77
2023/07/25 01:35:41;;;;;;;18.17;13.18;;;;;;;21.31;68.68;92618.38;5052340;28;20207;-76
2023/07/25 01:38:06;;;;;;;15.55;13.25;;;;;;;21.15;69.52;92599.03;5052515;28;20193;-77
2023/07/25 01:40:32;;;;;;;18.15;13.57;;;;;;;21.11;69.12;92593.63;5052155;28;20235;-77
2023/07/25 01:42:57;;;;;;;16.33;13.02;;;;;;;21.08;68.79;92606.81;5053314;28;20180;-77
2023/07/25 01:45:22;;;;;;;15.77;12.70;;;;;;;20.98;69.61;92602.03;5051977;28;20231;-77
2023/07/25 01:47:48;;;;;;;20.35;13.57;;;;;;;21.04;69.02;92587.38;5052706;28;20185;-77
2023/07/25 01:50:13;;;;;;;17.35;14.25;;;;;;;21.12;69.26;92594.41;5052146;28;20233;-77
2023/07/25 01:52:39;;;;;;;25.92;15.18;;;;;;;21.02;69.11;92589.59;5032944;28;20189;-78
2023/07/25 01:55:05;;;;;;;21.70;14.93;;;;;;;21.19;69.33;92598.00;5032138;28;20224;-77
2023/07/25 01:57:30;;;;;;;17.95;12.93;;;;;;;21.08;68.85;92604.94;5032963;28;20210;-78
2023/07/25 01:59:57;;;;;;;18.85;13.90;;;;;;;20.97;68.00;92592.50;5032808;28;20226;-76
2023/07/25 02:02:23;;;;;;;18.95;15.23;;;;;;;21.10;67.84;92602.72;5032665;28;20242;-77
2023/07/25 02:04:48;;;;;;;20.13;13.60;;;;;;;20.93;67.27;92612.84;5037189;28;20233;-77
2023/07/25 02:07:14;;;;;;;22.95;14.38;;;;;;;21.04;67.60;92608.63;5032223;28;20198;-77
2023/07/25 02:09:39;;;;;;;20.25;13.32;;;;;;;21.18;67.57;92620.34;5033799;28;20266;-76
2023/07/25 02:12:08;;;;;;;18.30;13.02;;;;;;;21.26;67.04;92627.34;5051908;28;20242;-77
2023/07/25 02:14:33;;;;;;;20.77;13.63;;;;;;;21.27;67.44;92633.44;5050868;28;20199;-77
2023/07/25 02:16:59;;;;;;;17.90;14.15;;;;;;;21.28;68.92;92640.28;5052205;28;20195;-77
2023/07/25 02:19:24;;;;;;;14.60;13.07;;;;;;;21.11;67.79;92641.41;5052045;28;20182;-76
2023/07/25 02:21:49;;;;;;;20.67;14.50;;;;;;;21.04;68.86;92635.94;5050499;28;20228;-76
2023/07/25 02:24:15;;;;;;;19.58;14.20;;;;;;;21.05;68.76;92634.81;5051990;28;20203;-77
2023/07/25 02:26:40;;;;;;;18.50;14.85;;;;;;;21.06;68.96;92632.94;5051116;28;20252;-76
2023/07/25 02:29:06;;;;;;;21.00;14.02;;;;;;;21.13;69.20;92641.84;5052082;28;20188;-74
2023/07/25 02:31:31;;;;;;;18.83;13.13;;;;;;;20.98;70.09;92647.16;5051411;28;20234;-76
2023/07/25 02:33:56;;;;;;;21.60;15.02;;;;;;;21.03;69.79;92649.56;5051839;28;20189;-75
2023/07/25 02:36:22;;;;;;;16.85;13.30;;;;;;;20.98;69.47;92647.16;5051319;28;20232;-75
2023/07/25 02:38:47;;;;;;;26.30;14.95;;;;;;;20.90;69.31;92634.78;5051819;28;20181;-76
2023/07/25 02:41:13;;;;;;;26.38;15.85;;;;;;;20.83;69.97;92639.88;5036468;28;20245;-76
2023/07/25 02:43:38;;;;;;;16.65;13.93;;;;;;;20.87;69.70;92651.38;5020565;28;20187;-76
2023/07/25 02:46:04;;;;;;;16.50;14.27;;;;;;;20.88;69.79;92655.56;5044386;28;20224;-76
2023/07/25 02:48:29;;;;;;;19.38;14.52;;;;;;;20.81;70.83;92650.09;5051712;28;20184;-75
2023/07/25 02:50:55;;;;;;;22.23;13.75;;;;;;;20.63;71.40;92644.31;5050655;28;20229;-75
2023/07/25 02:53:20;;;;;;;25.42;13.68;;;;;;;20.63;71.06;92637.13;5051411;28;20226;-75
2023/07/25 02:55:45;;;;;;;25.80;14.80;;;;;;;20.63;72.56;92642.44;5051024;28;20233;-76
2023/07/25 02:58:12;;;;;;;18.15;13.93;;;;;;;20.54;71.85;92635.72;5051263;28;20176;-76
2023/07/25 03:00:38;;;;;;;22.10;14.82;;;;;;;20.47;72.81;92625.69;5051112;28;20292;-76
2023/07/25 03:03:03;;;;;;;19.00;13.57;;;;;;;20.54;71.92;92636.50;5051340;28;20187;-75
2023/07/25 03:05:28;;;;;;;18.65;14.07;;;;;;;20.57;70.93;92638.50;5050839;28;20287;-75
2023/07/25 03:07:56;;;;;;;17.33;13.95;;;;;;;20.52;70.89;92641.38;5051113;28;20727;-75
2023/07/25 03:10:22;;;;;;;17.77;13.50;;;;;;;20.54;71.46;92627.78;5050473;28;20245;-76
2023/07/25 03:12:47;;;;;;;23.52;14.90;;;;;;;20.58;72.21;92640.03;5051417;28;20208;-76
2023/07/25 03:15:13;;;;;;;20.40;14.63;;;;;;;20.59;71.15;92632.84;5050804;28;20233;-75
2023/07/25 03:17:38;;;;;;;18.13;14.32;;;;;;;20.62;71.49;92632.91;5050932;28;20196;-75
2023/07/25 03:20:05;;;;;;;20.00;13.85;;;;;;;20.58;72.75;92632.06;5049488;28;20231;-76
2023/07/25 03:22:31;;;;;;;17.45;14.23;;;;;;;20.55;70.88;92630.09;5050581;28;20202;-75
2023/07/25 03:24:56;;;;;;;19.90;14.23;;;;;;;20.52;70.94;92635.28;5050349;28;20238;-76
2023/07/25 03:27:22;;;;;;;26.95;15.15;;;;;;;20.51;71.84;92629.19;5050662;28;20220;-76
2023/07/25 03:29:47;;;;;;;20.27;14.40;;;;;;;20.54;71.99;92628.56;5050183;28;20241;-75
2023/07/25 03:32:12;;;;;;;18.10;14.55;;;;;;;20.65;71.04;92629.59;5049653;28;20210;-76
2023/07/25 03:34:38;;;;;;;17.15;13.98;;;;;;;20.81;71.50;92636.81;5050315;28;20210;-74
2023/07/25 03:37:03;;;;;;;19.35;13.68;;;;;;;20.62;70.43;92640.13;5050278;28;20209;-76
2023/07/25 03:39:29;;;;;;;26.67;17.65;;;;;;;20.70;70.49;92639.97;5050015;28;20191;-76
2023/07/25 03:41:54;;;;;;;30.50;17.15;;;;;;;20.89;70.81;92643.84;5050635;28;20190;-76
2023/07/25 03:44:20;;;;;;;28.35;17.73;;;;;;;21.02;69.73;92645.34;5050669;28;20182;-76
2023/07/25 03:46:46;;;;;;;22.10;15.07;;;;;;;21.20;69.33;92654.53;5050222;28;20218;-76
2023/07/25 03:49:12;;;;;;;20.52;14.25;;;;;;;21.42;68.83;92651.25;5050116;28;20195;-75
2023/07/25 03:51:37;;;;;;;23.98;14.23;;;;;;;21.52;69.56;92642.78;5049038;28;20240;-75
2023/07/25 03:54:04;;;;;;;22.45;15.07;;;;;;;21.44;69.19;92630.44;5050142;28;20432;-76
2023/07/25 03:56:29;;;;;;;16.13;13.60;;;;;;;21.54;67.98;92633.34;5049757;28;20219;-75
2023/07/25 03:58:55;;;;;;;19.77;15.23;;;;;;;21.80;69.53;92640.81;5058302;28;20212;-75
2023/07/25 04:01:20;;;;;;;22.25;14.98;;;;;;;21.94;68.35;92636.56;5049460;28;20266;-75
2023/07/25 04:03:45;;;;;;;20.92;14.65;;;;;;;22.01;68.18;92626.06;5050401;28;20199;-75
2023/07/25 04:06:11;;;;;;;19.63;13.85;;;;;;;22.17;68.70;92623.38;5049215;28;20218;-75
2023/07/25 04:08:36;;;;;;;24.38;14.25;;;;;;;22.21;68.63;92619.66;5049123;28;20213;-72
2023/07/25 04:11:02;;;;;;;25.90;18.23;;;;;;;22.20;68.62;92625.31;5040660;28;20255;-72
2023/07/25 04:13:27;;;;;;;22.00;13.52;;;;;;;22.43;68.60;92634.16;5042492;28;20196;-72
2023/07/25 04:15:52;;;;;;;17.20;13.85;;;;;;;22.61;68.39;92651.28;5041496;28;20234;-72
2023/07/25 04:18:18;;;;;;;21.42;14.40;;;;;;;22.71;69.10;92658.69;5047979;28;20200;-71
2023/07/25 04:20:44;;;;;;;18.10;14.20;;;;;;;22.71;68.80;92647.28;5048113;28;20296;-72
2023/07/25 04:23:09;;;;;;;22.58;15.10;;;;;;;22.75;67.80;92667.53;5048102;28;20187;-72
2023/07/25 04:25:35;;;;;;;22.05;15.18;;;;;;;22.71;68.13;92661.34;5054281;28;20224;-72
2023/07/25 04:28:00;;;;;;;23.30;14.85;;;;;;;23.02;66.01;92652.41;5045352;28;20196;-72
2023/07/25 04:30:26;;;;;;;24.95;15.23;;;;;;;23.09;67.49;92663.97;5042734;28;20241;-72
2023/07/25 04:32:51;;;;;;;19.00;15.18;;;;;;;23.27;66.55;92659.72;5047212;28;20189;-72
2023/07/25 04:35:16;;;;;;;18.42;14.98;;;;;;;23.61;63.97;92653.44;5063293;28;20731;-70
2023/07/25 04:37:42;;;;;;;19.42;15.13;;;;;;;23.74;65.64;92654.78;5043291;28;20188;-69
2023/07/25 04:40:08;;;;;;;21.58;15.02;;;;;;;23.71;65.83;92652.84;5035150;28;20226;-71
2023/07/25 04:42:33;;;;;;;28.95;16.05;;;;;;;24.10;61.74;92642.00;5049715;28;20289;-69
2023/07/25 04:44:58;;;;;;;27.42;15.55;;;;;;;23.96;63.53;92641.75;5045489;28;20226;-69
2023/07/25 04:47:24;;;;;;;25.27;15.35;;;;;;;24.00;66.07;92634.63;5057389;28;21011;-69
2023/07/25 04:49:49;;;;;;;24.90;15.35;;;;;;;24.07;63.51;92632.03;5050789;28;20236;-70
2023/07/25 04:52:14;;;;;;;19.50;15.90;;;;;;;24.29;62.39;92636.53;5048941;28;20216;-70
2023/07/25 04:54:40;;;;;;;22.98;16.02;;;;;;;24.50;60.62;92634.88;5040601;28;20176;-71
2023/07/25 04:57:05;;;;;;;23.65;15.40;;;;;;;24.40;62.24;92638.22;5040319;28;20189;-74
2023/07/25 04:59:32;;;;;;;23.45;14.82;;;;;;;24.11;63.74;92635.53;5042354;28;20258;-73
2023/07/25 05:01:57;;;;;;;23.27;15.95;;;;;;;24.46;63.36;92630.66;5040912;28;20185;-74
2023/07/25 05:04:22;;;;;;;23.45;15.52;;;;;;;24.89;61.69;92627.34;5041888;28;20213;-72
2023/07/25 05:06:48;;;;;;;20.70;15.25;;;;;;;24.72;63.09;92626.03;5047829;28;20252;-74
2023/07/25 05:09:15;;;;;;;22.25;16.33;;;;;;;25.12;59.94;92627.97;5045908;28;20182;-74
2023/07/25 05:11:40;;;;;;;19.52;15.88;;;;;;;24.90;62.21;92631.56;5046738;28;20220;-71
2023/07/25 05:14:06;;;;;;;19.92;15.20;;;;;;;24.93;61.46;92631.63;5047182;28;20207;-71
2023/07/25 05:16:31;;;;;;;24.40;16.48;;;;;;;25.16;59.40;92624.19;5046742;28;20229;-71
2023/07/25 05:18:56;;;;;;;19.05;14.60;;;;;;;24.88;60.50;92615.91;5047248;28;20177;-72
2023/07/25 05:21:22;;;;;;;20.20;15.68;;;;;;;25.35;59.47;92620.56;5038870;28;20216;-72
2023/07/25 05:23:47;;;;;;;23.80;15.90;;;;;;;25.34;59.46;92624.38;5048371;28;21104;-74
2023/07/25 05:26:12;;;;;;;27.60;17.25;;;;;;;25.08;60.34;92619.16;5048200;28;20230;-75
2023/07/25 05:28:38;;;;;;;23.83;15.48;;;;;;;25.28;60.61;92631.16;5047919;28;20185;-73
2023/07/25 05:31:03;;;;;;;26.13;16.65;;;;;;;25.27;59.17;92629.63;5048037;28;20229;-73
2023/07/25 05:33:29;;;;;;;32.67;16.63;;;;;;;25.19;59.87;92638.72;5049084;28;20204;-72
2023/07/25 05:36:01;;;;;;;23.20;16.08;;;;;;;25.07;60.32;92630.97;5038884;28;20261;-71
2023/07/25 05:38:27;;;;;;;28.52;17.40;;;;;;;24.54;60.91;92642.94;5048854;28;20842;-75
2023/07/25 05:40:53;;;;;;;30.52;18.15;;;;;;;24.63;61.04;92643.44;5047477;28;20298;-71
2023/07/25 05:43:19;;;;;;;29.30;17.02;;;;;;;24.55;60.68;92645.25;5047512;28;20198;-70
2023/07/25 05:45:44;;;;;;;32.97;17.05;;;;;;;25.01;60.21;92643.88;5047997;28;20240;-78
2023/07/25 05:48:09;;;;;;;28.52;17.75;;;;;;;25.39;58.67;92640.06;5047676;28;20221;-71
2023/07/25 05:50:35;;;;;;;30.63;17.50;;;;;;;25.72;58.57;92639.97;5050346;28;20226;-70
2023/07/25 05:53:00;;;;;;;30.65;16.65;;;;;;;25.85;56.73;92641.22;5059303;28;20204;-69
2023/07/25 05:55:26;;;;;;;31.80;16.88;;;;;;;27.16;53.99;92645.31;5051649;28;20242;-76
2023/07/25 05:57:51;;;;;;;36.65;15.93;;;;;;;28.76;48.39;92643.75;5051292;28;20217;-74
2023/07/25 06:00:17;;;;;;;26.38;16.40;;;;;;;29.53;45.92;92632.56;5051976;28;20248;-75
2023/07/25 06:02:42;;;;;;;22.30;16.05;;;;;;;30.09;44.50;92646.78;5052499;28;20189;-75
2023/07/25 06:05:08;;;;;;;21.65;15.45;;;;;;;32.72;39.68;92647.84;5044993;28;20230;-74
2023/07/25 06:07:33;;;;;;;25.92;15.60;;;;;;;35.60;33.99;92658.66;5031858;28;20253;-75
2023/07/25 06:09:59;;;;;;;23.05;14.77;;;;;;;36.41;31.12;92649.94;5036275;28;20233;-74
2023/07/25 06:12:24;;;;;;;26.38;15.50;;;;;;;35.16;33.65;92656.06;5051985;28;20846;-75
2023/07/25 06:14:50;;;;;;;24.60;15.27;;;;;;;36.75;30.83;92656.13;5052221;28;20233;-76
2023/07/25 06:17:15;;;;;;;32.28;15.93;;;;;;;37.29;29.49;92658.56;5051909;28;20182;-75
2023/07/25 06:19:41;;;;;;;22.60;14.90;;;;;;;38.81;27.74;92665.03;5051714;28;20216;-75
2023/07/25 06:22:06;;;;;;;21.30;14.23;;;;;;;39.56;26.11;92658.63;5048017;28;20217;-75
2023/07/25 06:24:32;;;;;;;28.70;15.13;;;;;;;39.81;25.57;92654.75;5049345;28;20163;-75
2023/07/25 06:26:57;;;;;;;29.48;14.27;;;;;;;39.18;26.75;92649.44;5051062;28;20225;-75
2023/07/25 06:29:23;;;;;;;22.50;14.25;;;;;;;38.32;27.65;92635.06;5050945;28;20186;-75
2023/07/25 06:31:48;;;;;;;27.05;14.13;;;;;;;40.20;24.67;92637.28;5050288;28;20216;-75
2023/07/25 06:34:13;;;;;;;21.33;14.63;;;;;;;37.26;29.21;92632.22;5050958;28;20194;-75
2023/07/25 06:36:39;;;;;;;25.63;13.85;;;;;;;38.83;27.32;92624.38;5050841;28;20214;-75
2023/07/25 06:39:04;;;;;;;21.90;13.20;;;;;;;39.87;25.41;92633.78;5051627;28;20186;-75
2023/07/25 06:41:30;;;;;;;22.88;13.73;;;;;;;39.49;25.71;92607.00;5050443;28;20210;-75
2023/07/25 06:43:55;;;;;;;21.65;13.00;;;;;;;38.57;26.91;92614.22;5052012;28;20193;-75
2023/07/25 06:46:21;;;;;;;19.00;12.95;;;;;;;33.32;34.89;92593.25;5051714;28;20305;-75
2023/07/25 06:48:47;;;;;;;19.08;13.98;;;;;;;32.01;38.27;92586.16;5051684;28;20679;-75
2023/07/25 06:51:13;;;;;;;26.30;15.10;;;;;;;30.93;41.18;92598.16;5050805;28;20228;-75
2023/07/25 06:53:38;;;;;;;24.58;14.80;;;;;;;29.86;43.83;92590.03;5051823;28;20191;-75
2023/07/25 06:56:03;;;;;;;24.55;14.50;;;;;;;28.81;48.04;92586.88;5051021;28;20270;-75
2023/07/25 06:58:29;;;;;;;20.05;14.63;;;;;;;29.32;46.57;92589.69;5056379;28;20197;-75
2023/07/25 07:00:54;;;;;;;25.30;14.73;;;;;;;28.94;48.04;92585.28;5053185;28;20213;-75
2023/07/25 07:03:19;;;;;;;24.92;15.10;;;;;;;28.56;49.21;92596.22;5051502;28;20191;-75
2023/07/25 07:05:55;;;;;;;22.13;14.98;;;;;;;28.98;47.08;92591.38;5049643;28;20228;-74
2023/07/25 07:08:23;;;;;;;22.88;15.63;;;;;;;27.36;50.47;92593.69;5042827;28;20186;-75
2023/07/25 07:10:55;;;;;;;21.70;15.85;;;;;;;27.93;50.79;92597.13;5050616;28;20294;-74
2023/07/25 07:13:22;;;;;;;28.52;15.48;;;;;;;28.55;47.98;92600.81;5051105;28;20189;-75
2023/07/25 07:15:48;;;;;;;19.73;14.73;;;;;;;28.75;47.79;92593.06;5050972;28;20930;-74
2023/07/25 07:18:15;;;;;;;24.83;15.80;;;;;;;28.89;47.97;92598.38;5050860;28;20232;-73
2023/07/25 07:20:46;;;;;;;32.53;15.63;;;;;;;28.81;47.17;92592.25;5050278;28;20226;-72
2023/07/25 07:23:11;;;;;;;22.73;15.57;;;;;;;28.23;48.43;92592.06;5050495;28;20182;-73
2023/07/25 07:25:38;;;;;;;23.95;15.57;;;;;;;28.41;47.78;92590.09;5050154;28;20232;-72
2023/07/25 07:28:04;;;;;;;26.75;15.43;;;;;;;28.41;47.66;92582.03;5050778;28;20192;-72
2023/07/25 07:30:29;;;;;;;23.67;15.50;;;;;;;28.45;47.03;92580.13;5051326;28;20233;-73
2023/07/25 07:32:56;;;;;;;21.98;14.82;;;;;;;28.60;47.37;92580.84;5056921;28;20192;-73
2023/07/25 07:35:21;;;;;;;31.92;16.63;;;;;;;28.40;47.27;92582.41;5050225;28;20226;-72
2023/07/25 07:37:46;;;;;;;30.02;14.88;;;;;;;28.18;47.61;92566.38;5050471;28;20241;-72
2023/07/25 07:40:12;;;;;;;25.83;16.10;;;;;;;28.27;48.10;92579.38;5050251;28;20226;-72
2023/07/25 07:42:37;;;;;;;21.58;15.50;;;;;;;27.92;49.82;92587.53;5050554;28;20181;-73
2023/07/25 07:45:03;;;;;;;27.23;15.82;;;;;;;27.54;48.78;92574.88;5050109;28;20236;-73
2023/07/25 07:47:28;;;;;;;19.13;15.10;;;;;;;28.27;48.26;92564.06;5050660;28;20201;-72
2023/07/25 07:49:54;;;;;;;22.35;14.88;;;;;;;28.54;47.72;92572.44;5049305;28;20237;-73
2023/07/25 07:52:19;;;;;;;29.50;15.52;;;;;;;28.71;46.42;92555.44;5050351;28;20211;-73
2023/07/25 07:54:44;;;;;;;24.60;15.82;;;;;;;28.21;47.83;92568.28;5049739;28;20212;-72
2023/07/25 07:57:10;;;;;;;22.83;15.48;;;;;;;28.61;47.37;92572.38;5050471;28;20198;-73
2023/07/25 07:59:35;;;;;;;26.95;15.45;;;;;;;28.77;45.29;92566.53;5049603;28;20208;-73
2023/07/25 08:02:01;;;;;;;25.52;15.23;;;;;;;28.96;45.56;92564.16;5054461;28;20186;-74
2023/07/25 08:04:26;;;;;;;24.30;15.20;;;;;;;29.02;45.47;92562.56;5049720;28;20247;-72
2023/07/25 08:06:51;;;;;;;22.35;15.82;;;;;;;28.66;44.75;92558.53;5050179;28;20198;-72
2023/07/25 08:09:17;;;;;;;24.90;16.35;;;;;;;28.85;45.04;92559.97;5049730;28;20226;-73
2023/07/25 08:11:42;;;;;;;26.42;15.88;;;;;;;29.04;44.29;92557.56;5049826;28;20229;-73
2023/07/25 08:14:07;;;;;;;22.50;16.55;;;;;;;28.55;43.87;92544.38;5049150;28;20213;-73
2023/07/25 08:16:33;;;;;;;27.95;15.90;;;;;;;28.50;44.61;92550.16;5050467;28;20289;-72
2023/07/25 08:18:58;;;;;;;32.13;17.13;;;;;;;29.26;43.73;92542.81;5049835;28;20197;-73
2023/07/25 08:21:23;;;;;;;23.85;15.82;;;;;;;29.32;42.99;92546.63;5049780;28;20247;-73
2023/07/25 08:23:49;;;;;;;23.13;15.20;;;;;;;29.09;44.59;92551.03;5048631;28;20198;-73
2023/07/25 08:26:14;;;;;;;21.50;16.30;;;;;;;29.63;44.44;92555.59;5049601;28;20227;-73
2023/07/25 08:28:40;;;;;;;22.70;15.70;;;;;;;30.00;43.50;92557.59;5049816;28;20197;-72
2023/07/25 08:31:06;;;;;;;28.52;16.10;;;;;;;29.76;42.23;92551.28;5049339;28;20226;-72
2023/07/25 08:33:33;;;;;;;26.50;14.85;;;;;;;29.97;40.77;92532.22;5049656;28;20188;-73
2023/07/25 08:35:59;;;;;;;21.55;14.90;;;;;;;29.87;41.48;92551.19;5049291;28;20220;-73
2023/07/25 08:38:24;;;;;;;30.00;16.88;;;;;;;29.80;41.42;92549.31;5049844;28;20200;-73
2023/07/25 08:41:04;;;;;;;20.33;14.93;;;;;;;30.06;41.13;92537.13;5038123;28;20230;-72
2023/07/25 08:43:34;;;;;;;33.30;15.80;;;;;;;29.81;41.54;92542.03;5029921;28;20200;-75
2023/07/25 08:46:11;;;;;;;20.92;15.00;;;;;;;29.99;41.59;92546.06;5029803;28;20221;-75
2023/07/25 08:48:38;;;;;;;28.30;15.10;;;;;;;30.12;39.62;92532.84;5029967;28;20250;-75
2023/07/25 08:51:06;;;;;;;28.85;15.10;;;;;;;29.91;40.89;92523.06;5049743;28;20231;-75
2023/07/25 08:53:32;;;;;;;28.52;15.27;;;;;;;30.06;40.82;92539.81;5049801;28;20201;-74
2023/07/25 08:56:00;;;;;;;22.70;14.90;;;;;;;30.28;39.78;92525.00;5049143;28;20221;-75
2023/07/25 08:58:27;;;;;;;35.08;16.27;;;;;;;30.50;41.14;92537.81;5049466;28;20257;-73
2023/07/25 09:00:53;;;;;;;32.63;16.88;;;;;;;29.96;42.14;92538.03;5052788;28;20224;-73
2023/07/25 09:03:19;;;;;;;25.92;15.45;;;;;;;29.83;38.85;92528.91;5049325;28;20202;-72
2023/07/25 09:05:45;;;;;;;22.50;14.07;;;;;;;30.30;40.51;92533.44;5048954;28;20235;-73
2023/07/25 09:08:10;;;;;;;19.88;13.63;;;;;;;30.44;37.62;92538.66;5049281;28;20182;-73
2023/07/25 09:10:36;;;;;;;23.95;14.25;;;;;;;30.62;37.20;92536.50;5048718;28;20214;-73
2023/07/25 09:13:02;;;;;;;23.70;14.18;;;;;;;30.30;38.13;92528.06;5049326;28;20198;-72
2023/07/25 09:15:27;;;;;;;19.60;13.07;;;;;;;30.56;35.85;92524.66;5048665;28;20229;-72
2023/07/25 09:17:53;;;;;;;20.85;13.18;;;;;;;30.35;36.72;92524.91;5049982;28;20186;-73
2023/07/25 09:20:19;;;;;;;16.42;13.07;;;;;;;30.00;37.94;92519.88;5048809;28;20222;-73
2023/07/25 09:22:48;;;;;;;25.05;13.93;;;;;;;30.59;36.70;92518.44;5049350;28;20262;-73
2023/07/25 09:25:15;;;;;;;23.55;14.60;;;;;;;30.88;36.00;92498.06;5051527;28;20315;-73
2023/07/25 09:27:46;;;;;;;24.55;14.15;;;;;;;30.69;35.21;92512.94;5053236;28;20194;-73
2023/07/25 09:30:13;;;;;;;19.55;14.45;;;;;;;30.40;37.69;92511.00;5052372;28;20226;-72
2023/07/25 09:32:44;;;;;;;22.38;14.85;;;;;;;30.75;37.16;92500.56;5053004;28;20243;-73
2023/07/25 09:35:11;;;;;;;25.98;14.13;;;;;;;30.90;37.31;92501.88;5052204;28;20214;-73
2023/07/25 09:37:37;;;;;;;21.55;13.70;;;;;;;30.97;37.02;92511.78;5053011;28;20249;-73
2023/07/25 09:40:13;;;;;;;20.90;13.55;;;;;;;30.85;38.36;92509.66;5047506;28;20234;-73
2023/07/25 09:42:42;;;;;;;22.08;13.65;;;;;;;30.70;36.88;92514.44;5033111;28;20258;-72
2023/07/25 09:45:09;;;;;;;22.40;14.60;;;;;;;31.07;36.92;92508.16;5036236;28;20229;-73
2023/07/25 09:47:35;;;;;;;20.73;14.00;;;;;;;31.38;36.05;92509.63;5039930;28;20274;-77
2023/07/25 09:50:03;;;;;;;25.50;13.57;;;;;;;30.86;38.43;92503.09;5040424;28;20248;-75
2023/07/25 09:52:40;;;;;;;21.67;14.52;;;;;;;30.89;36.97;92496.88;5052271;28;20217;-74
2023/07/25 09:55:07;;;;;;;16.35;13.45;;;;;;;31.29;37.01;92512.06;5051940;28;20226;-75
2023/07/25 09:57:33;;;;;;;19.23;14.38;;;;;;;31.23;37.40;92502.91;5052984;28;20280;-73
2023/07/25 10:00:00;;;;;;;18.52;12.95;;;;;;;31.29;37.19;92495.88;5052215;28;20328;-73
2023/07/25 10:02:25;;;;;;;27.00;14.38;;;;;;;31.42;35.99;92504.97;5048908;28;20238;-73
2023/07/25 10:04:55;;;;;;;20.65;12.63;;;;;;;31.12;37.31;92503.09;5051910;28;20233;-73
2023/07/25 10:07:23;;;;;;;23.25;14.65;;;;;;;31.42;37.03;92498.78;5052088;28;20202;-73
2023/07/25 10:09:51;;;;;;;22.58;13.30;;;;;;;31.70;35.90;92482.88;5049583;28;20230;-73
2023/07/25 10:12:16;;;;;;;19.92;13.68;;;;;;;31.33;35.75;92469.66;5032246;28;20287;-73
2023/07/25 10:14:42;;;;;;;20.02;13.30;;;;;;;31.47;34.95;92487.53;5032014;28;20182;-73
2023/07/25 10:17:08;;;;;;;22.17;12.80;;;;;;;31.17;36.30;92469.47;5032329;28;20187;-73
2023/07/25 10:19:53;;;;;;;22.30;13.35;;;;;;;31.75;34.47;92468.91;5032088;28;20294;-73
2023/07/25 10:22:40;;;;;;;18.92;13.00;;;;;;;31.68;36.61;92474.41;5030735;28;20175;-74
2023/07/25 10:25:10;;;;;;;24.10;13.40;;;;;;;31.91;35.13;92477.09;5031589;28;20234;-73
2023/07/25 10:27:36;;;;;;;19.38;13.32;;;;;;;31.82;35.62;92441.00;5032160;28;20179;-74
2023/07/25 10:30:01;;;;;;;22.38;13.00;;;;;;;31.85;36.25;92438.25;5031684;28;20345;-73
2023/07/25 10:32:44;;;;;;;19.23;13.57;;;;;;;31.83;34.91;92454.09;5032122;28;20685;-74
2023/07/25 10:35:09;;;;;;;23.42;12.70;;;;;;;31.96;34.88;92438.81;5036508;28;20222;-73
2023/07/25 10:37:42;;;;;;;19.30;12.85;;;;;;;32.14;35.97;92436.50;5051161;28;20214;-73
2023/07/25 10:40:13;;;;;;;20.48;14.00;;;;;;;32.47;35.10;92432.00;5045401;28;20226;-74
2023/07/25 10:42:48;;;;;;;22.35;13.10;;;;;;;32.54;35.67;92429.16;5031198;28;20190;-74
2023/07/25 10:45:28;;;;;;;25.58;14.10;;;;;;;32.61;34.37;92432.47;5036311;28;20230;-73
2023/07/25 10:47:55;;;;;;;19.10;13.23;;;;;;;32.36;36.26;92426.09;5051837;28;20200;-74
2023/07/25 10:50:27;;;;;;;21.45;13.88;;;;;;;32.43;36.27;92423.22;5051106;28;20226;-74
2023/07/25 10:52:52;;;;;;;14.57;12.18;;;;;;;32.58;35.70;92410.91;5050492;28;20205;-73
2023/07/25 10:55:19;;;;;;;27.90;12.93;;;;;;;32.75;36.01;92417.84;5051000;28;20218;-73
2023/07/25 10:58:08;;;;;;;19.63;12.18;;;;;;;32.79;34.23;92410.44;5051142;28;20240;-74
2023/07/25 11:00:35;;;;;;;24.65;12.23;;;;;;;32.68;33.70;92399.88;5051000;28;20218;-74
2023/07/25 11:03:38;;;;;;;19.20;11.55;;;;;;;32.91;33.06;92400.91;5051543;28;20194;-73
2023/07/25 11:06:06;;;;;;;19.92;12.48;;;;;;;32.80;35.30;92405.78;5050589;28;20233;-73
2023/07/25 11:08:33;;;;;;;19.50;13.63;;;;;;;32.98;34.48;92387.22;5051357;28;20834;-74
2023/07/25 11:11:07;;;;;;;15.57;12.60;;;;;;;33.08;35.04;92386.19;5050623;28;20217;-74
2023/07/25 11:13:34;;;;;;;19.95;13.38;;;;;;;33.22;33.92;92386.59;5051371;28;20190;-73